sensor_id;sensor_type;location;lat;lon;timestamp;P1;durP1;ratioP1;P2;durP2;ratioP2
9248;SDS011;4660;41.768;26.198;2022-08-19T00:00:21;6.95;;;6.28;;
9248;SDS011;4660;41.768;26.198;2022-08-19T00:02:46;9.13;;;6.60;;
9248;SDS011;4660;41.768;26.198;2022-08-19T00:05:13;10.75;;;6.43;;
9248;SDS011;4660;41.768;26.198;2022-08-19T00:07:40;7.53;;;6.93;;
9248;SDS011;4660;41.768;26.198;2022-08-19T00:10:08;15.45;;;7.15;;
9248;SDS011;4660;41.768;26.198;2022-08-19T00:12:34;7.40;;;6.68;;
9248;SDS011;4660;41.768;26.198;2022-08-19T00:15:01;9.93;;;7.55;;
9248;SDS011;4660;41.768;26.198;2022-08-19T00:17:26;9.20;;;7.85;;
9248;SDS011;4660;41.768;26.198;2022-08-19T00:19:52;9.00;;;7.00;;
9248;SDS011;4660;41.768;26.198;2022-08-19T00:22:17;10.63;;;6.32;;
9248;SDS011;4660;41.768;26.198;2022-08-19T00:24:44;8.38;;;7.57;;
9248;SDS011;4660;41.768;26.198;2022-08-19T00:27:10;11.13;;;6.95;;
9248;SDS011;4660;41.768;26.198;2022-08-19T00:29:37;8.20;;;7.40;;
9248;SDS011;4660;41.768;26.198;2022-08-19T00:32:03;8.75;;;7.55;;
9248;SDS011;4660;41.768;26.198;2022-08-19T00:34:29;8.10;;;7.20;;
9248;SDS011;4660;41.768;26.198;2022-08-19T00:36:55;7.63;;;7.03;;
9248;SDS011;4660;41.768;26.198;2022-08-19T00:39:22;8.82;;;7.18;;
9248;SDS011;4660;41.768;26.198;2022-08-19T00:41:48;9.55;;;7.38;;
9248;SDS011;4660;41.768;26.198;2022-08-19T00:44:22;7.88;;;6.80;;
9248;SDS011;4660;41.768;26.198;2022-08-19T00:46:50;9.57;;;6.93;;
9248;SDS011;4660;41.768;26.198;2022-08-19T00:52:27;12.80;;;7.45;;
9248;SDS011;4660;41.768;26.198;2022-08-19T00:54:57;13.90;;;7.40;;
9248;SDS011;4660;41.768;26.198;2022-08-19T00:57:26;10.48;;;7.25;;
9248;SDS011;4660;41.768;26.198;2022-08-19T00:59:56;9.60;;;7.25;;
9248;SDS011;4660;41.768;26.198;2022-08-19T01:02:24;9.40;;;7.32;;
9248;SDS011;4660;41.768;26.198;2022-08-19T01:04:51;8.27;;;7.47;;
9248;SDS011;4660;41.768;26.198;2022-08-19T01:07:17;9.00;;;6.90;;
9248;SDS011;4660;41.768;26.198;2022-08-19T01:09:43;8.15;;;7.35;;
9248;SDS011;4660;41.768;26.198;2022-08-19T01:12:09;8.93;;;7.82;;
9248;SDS011;4660;41.768;26.198;2022-08-19T01:14:36;9.15;;;7.18;;
9248;SDS011;4660;41.768;26.198;2022-08-19T01:17:04;8.43;;;6.97;;
9248;SDS011;4660;41.768;26.198;2022-08-19T01:19:33;8.32;;;7.50;;
9248;SDS011;4660;41.768;26.198;2022-08-19T01:22:09;8.57;;;7.00;;
9248;SDS011;4660;41.768;26.198;2022-08-19T01:24:38;8.30;;;7.50;;
9248;SDS011;4660;41.768;26.198;2022-08-19T01:27:04;8.30;;;7.32;;
9248;SDS011;4660;41.768;26.198;2022-08-19T01:29:30;7.35;;;6.65;;
9248;SDS011;4660;41.768;26.198;2022-08-19T01:31:57;8.00;;;7.20;;
9248;SDS011;4660;41.768;26.198;2022-08-19T01:34:25;8.80;;;7.85;;
9248;SDS011;4660;41.768;26.198;2022-08-19T01:36:51;8.38;;;7.18;;
9248;SDS011;4660;41.768;26.198;2022-08-19T01:39:21;7.97;;;7.28;;
9248;SDS011;4660;41.768;26.198;2022-08-19T01:41:48;11.45;;;7.95;;
9248;SDS011;4660;41.768;26.198;2022-08-19T01:44:14;10.05;;;8.07;;
9248;SDS011;4660;41.768;26.198;2022-08-19T01:46:41;8.40;;;7.50;;
9248;SDS011;4660;41.768;26.198;2022-08-19T01:49:07;9.27;;;8.10;;
9248;SDS011;4660;41.768;26.198;2022-08-19T01:51:33;7.63;;;6.93;;
9248;SDS011;4660;41.768;26.198;2022-08-19T01:53:59;12.80;;;7.50;;
9248;SDS011;4660;41.768;26.198;2022-08-19T01:56:25;9.38;;;6.90;;
9248;SDS011;4660;41.768;26.198;2022-08-19T01:58:55;11.23;;;7.55;;
9248;SDS011;4660;41.768;26.198;2022-08-19T02:01:24;8.10;;;7.40;;
9248;SDS011;4660;41.768;26.198;2022-08-19T02:03:49;8.32;;;7.63;;
9248;SDS011;4660;41.768;26.198;2022-08-19T02:06:18;8.00;;;7.15;;
9248;SDS011;4660;41.768;26.198;2022-08-19T02:08:44;12.18;;;7.60;;
9248;SDS011;4660;41.768;26.198;2022-08-19T02:11:18;10.18;;;6.65;;
9248;SDS011;4660;41.768;26.198;2022-08-19T02:13:45;8.15;;;6.68;;
9248;SDS011;4660;41.768;26.198;2022-08-19T02:16:11;9.50;;;7.53;;
9248;SDS011;4660;41.768;26.198;2022-08-19T02:18:37;7.82;;;7.00;;
9248;SDS011;4660;41.768;26.198;2022-08-19T02:21:02;9.02;;;7.20;;
9248;SDS011;4660;41.768;26.198;2022-08-19T02:23:28;7.35;;;6.63;;
9248;SDS011;4660;41.768;26.198;2022-08-19T02:25:54;11.35;;;7.10;;
9248;SDS011;4660;41.768;26.198;2022-08-19T02:28:19;10.63;;;7.32;;
9248;SDS011;4660;41.768;26.198;2022-08-19T02:30:45;7.93;;;7.13;;
9248;SDS011;4660;41.768;26.198;2022-08-19T02:33:12;8.05;;;7.25;;
9248;SDS011;4660;41.768;26.198;2022-08-19T02:35:40;7.82;;;7.00;;
9248;SDS011;4660;41.768;26.198;2022-08-19T02:38:10;8.85;;;7.60;;
9248;SDS011;4660;41.768;26.198;2022-08-19T02:40:55;8.48;;;7.47;;
9248;SDS011;4660;41.768;26.198;2022-08-19T02:43:22;11.63;;;8.13;;
9248;SDS011;4660;41.768;26.198;2022-08-19T02:45:49;8.23;;;7.43;;
9248;SDS011;4660;41.768;26.198;2022-08-19T02:48:17;10.52;;;8.48;;
9248;SDS011;4660;41.768;26.198;2022-08-19T02:50:44;13.18;;;8.38;;
9248;SDS011;4660;41.768;26.198;2022-08-19T02:53:10;9.63;;;8.73;;
9248;SDS011;4660;41.768;26.198;2022-08-19T02:55:42;9.35;;;8.45;;
9248;SDS011;4660;41.768;26.198;2022-08-19T02:58:08;9.70;;;8.50;;
9248;SDS011;4660;41.768;26.198;2022-08-19T03:00:34;10.55;;;8.30;;
9248;SDS011;4660;41.768;26.198;2022-08-19T03:03:00;9.55;;;8.63;;
9248;SDS011;4660;41.768;26.198;2022-08-19T03:05:25;14.20;;;8.63;;
9248;SDS011;4660;41.768;26.198;2022-08-19T03:07:52;9.52;;;8.63;;
9248;SDS011;4660;41.768;26.198;2022-08-19T03:10:18;8.38;;;7.55;;
9248;SDS011;4660;41.768;26.198;2022-08-19T03:12:43;9.48;;;8.30;;
9248;SDS011;4660;41.768;26.198;2022-08-19T03:15:11;11.60;;;8.75;;
9248;SDS011;4660;41.768;26.198;2022-08-19T03:17:36;12.05;;;8.57;;
9248;SDS011;4660;41.768;26.198;2022-08-19T03:20:02;13.30;;;8.13;;
9248;SDS011;4660;41.768;26.198;2022-08-19T03:22:29;11.07;;;8.25;;
9248;SDS011;4660;41.768;26.198;2022-08-19T03:24:55;12.23;;;8.55;;
9248;SDS011;4660;41.768;26.198;2022-08-19T03:27:21;10.13;;;8.45;;
9248;SDS011;4660;41.768;26.198;2022-08-19T03:29:47;13.45;;;9.13;;
9248;SDS011;4660;41.768;26.198;2022-08-19T03:32:13;13.02;;;8.13;;
9248;SDS011;4660;41.768;26.198;2022-08-19T03:34:38;11.18;;;8.27;;
9248;SDS011;4660;41.768;26.198;2022-08-19T03:37:08;10.02;;;8.65;;
9248;SDS011;4660;41.768;26.198;2022-08-19T03:39:38;10.80;;;8.65;;
9248;SDS011;4660;41.768;26.198;2022-08-19T03:42:05;9.52;;;8.32;;
9248;SDS011;4660;41.768;26.198;2022-08-19T03:44:31;10.73;;;8.35;;
9248;SDS011;4660;41.768;26.198;2022-08-19T03:46:58;9.98;;;8.57;;
9248;SDS011;4660;41.768;26.198;2022-08-19T03:49:25;9.15;;;7.88;;
9248;SDS011;4660;41.768;26.198;2022-08-19T03:51:54;9.75;;;7.90;;
9248;SDS011;4660;41.768;26.198;2022-08-19T03:54:22;9.80;;;8.80;;
9248;SDS011;4660;41.768;26.198;2022-08-19T03:56:51;11.93;;;8.90;;
9248;SDS011;4660;41.768;26.198;2022-08-19T03:59:21;9.43;;;8.38;;
9248;SDS011;4660;41.768;26.198;2022-08-19T04:01:51;10.38;;;8.38;;
9248;SDS011;4660;41.768;26.198;2022-08-19T04:04:21;13.50;;;9.23;;
9248;SDS011;4660;41.768;26.198;2022-08-19T04:06:48;9.80;;;8.70;;
9248;SDS011;4660;41.768;26.198;2022-08-19T04:09:14;9.75;;;8.68;;
9248;SDS011;4660;41.768;26.198;2022-08-19T04:11:42;10.50;;;9.32;;
9248;SDS011;4660;41.768;26.198;2022-08-19T04:14:13;9.75;;;8.77;;
9248;SDS011;4660;41.768;26.198;2022-08-19T04:16:42;11.70;;;8.27;;
9248;SDS011;4660;41.768;26.198;2022-08-19T04:19:09;14.93;;;8.32;;
9248;SDS011;4660;41.768;26.198;2022-08-19T04:21:36;10.40;;;9.20;;
9248;SDS011;4660;41.768;26.198;2022-08-19T04:24:02;10.85;;;8.73;;
9248;SDS011;4660;41.768;26.198;2022-08-19T04:26:30;11.88;;;8.90;;
9248;SDS011;4660;41.768;26.198;2022-08-19T04:28:58;10.25;;;9.05;;
9248;SDS011;4660;41.768;26.198;2022-08-19T04:31:27;10.80;;;9.18;;
9248;SDS011;4660;41.768;26.198;2022-08-19T04:33:55;11.35;;;8.88;;
9248;SDS011;4660;41.768;26.198;2022-08-19T04:36:23;10.68;;;8.63;;
9248;SDS011;4660;41.768;26.198;2022-08-19T04:38:57;15.73;;;9.35;;
9248;SDS011;4660;41.768;26.198;2022-08-19T04:41:25;11.35;;;8.32;;
9248;SDS011;4660;41.768;26.198;2022-08-19T04:44:09;18.40;;;8.25;;
9248;SDS011;4660;41.768;26.198;2022-08-19T04:46:36;12.07;;;8.50;;
9248;SDS011;4660;41.768;26.198;2022-08-19T04:49:03;10.38;;;9.25;;
9248;SDS011;4660;41.768;26.198;2022-08-19T04:51:30;9.23;;;8.32;;
9248;SDS011;4660;41.768;26.198;2022-08-19T04:53:57;9.93;;;8.77;;
9248;SDS011;4660;41.768;26.198;2022-08-19T04:56:25;9.40;;;8.50;;
9248;SDS011;4660;41.768;26.198;2022-08-19T04:58:52;9.63;;;8.73;;
9248;SDS011;4660;41.768;26.198;2022-08-19T05:01:20;10.20;;;8.95;;
9248;SDS011;4660;41.768;26.198;2022-08-19T05:03:48;9.57;;;8.57;;
9248;SDS011;4660;41.768;26.198;2022-08-19T05:06:16;10.02;;;9.13;;
9248;SDS011;4660;41.768;26.198;2022-08-19T05:08:43;13.30;;;8.90;;
9248;SDS011;4660;41.768;26.198;2022-08-19T05:11:11;10.32;;;9.27;;
9248;SDS011;4660;41.768;26.198;2022-08-19T05:13:39;8.90;;;8.02;;
9248;SDS011;4660;41.768;26.198;2022-08-19T05:16:06;8.88;;;8.00;;
9248;SDS011;4660;41.768;26.198;2022-08-19T05:18:32;9.82;;;8.35;;
9248;SDS011;4660;41.768;26.198;2022-08-19T05:21:17;9.82;;;8.20;;
9248;SDS011;4660;41.768;26.198;2022-08-19T05:24:03;9.13;;;8.23;;
9248;SDS011;4660;41.768;26.198;2022-08-19T05:26:35;9.57;;;8.45;;
9248;SDS011;4660;41.768;26.198;2022-08-19T05:29:04;8.52;;;7.72;;
9248;SDS011;4660;41.768;26.198;2022-08-19T05:31:31;12.10;;;8.27;;
9248;SDS011;4660;41.768;26.198;2022-08-19T05:33:57;12.48;;;8.60;;
9248;SDS011;4660;41.768;26.198;2022-08-19T05:36:24;8.65;;;7.60;;
9248;SDS011;4660;41.768;26.198;2022-08-19T05:38:51;9.18;;;8.25;;
9248;SDS011;4660;41.768;26.198;2022-08-19T05:41:18;9.25;;;8.45;;
9248;SDS011;4660;41.768;26.198;2022-08-19T05:43:45;11.00;;;8.70;;
9248;SDS011;4660;41.768;26.198;2022-08-19T05:46:18;11.02;;;8.75;;
9248;SDS011;4660;41.768;26.198;2022-08-19T05:48:44;8.93;;;7.90;;
9248;SDS011;4660;41.768;26.198;2022-08-19T05:51:11;9.20;;;8.30;;
9248;SDS011;4660;41.768;26.198;2022-08-19T05:53:37;11.05;;;8.93;;
9248;SDS011;4660;41.768;26.198;2022-08-19T05:56:08;11.00;;;8.55;;
9248;SDS011;4660;41.768;26.198;2022-08-19T05:58:35;9.65;;;8.73;;
9248;SDS011;4660;41.768;26.198;2022-08-19T06:04:07;10.68;;;8.77;;
9248;SDS011;4660;41.768;26.198;2022-08-19T06:06:33;13.05;;;8.80;;
9248;SDS011;4660;41.768;26.198;2022-08-19T06:09:03;9.85;;;8.38;;
9248;SDS011;4660;41.768;26.198;2022-08-19T06:11:52;13.60;;;7.85;;
9248;SDS011;4660;41.768;26.198;2022-08-19T06:14:19;10.10;;;8.52;;
9248;SDS011;4660;41.768;26.198;2022-08-19T06:16:49;13.05;;;8.65;;
9248;SDS011;4660;41.768;26.198;2022-08-19T06:21:52;8.95;;;7.40;;
9248;SDS011;4660;41.768;26.198;2022-08-19T06:24:19;9.00;;;8.20;;
9248;SDS011;4660;41.768;26.198;2022-08-19T06:26:50;9.35;;;8.45;;
9248;SDS011;4660;41.768;26.198;2022-08-19T06:29:17;9.02;;;8.07;;
9248;SDS011;4660;41.768;26.198;2022-08-19T06:31:46;12.23;;;8.38;;
9248;SDS011;4660;41.768;26.198;2022-08-19T06:34:14;10.23;;;7.78;;
9248;SDS011;4660;41.768;26.198;2022-08-19T06:36:42;9.98;;;8.30;;
9248;SDS011;4660;41.768;26.198;2022-08-19T06:39:11;12.15;;;8.30;;
9248;SDS011;4660;41.768;26.198;2022-08-19T06:41:43;10.88;;;8.18;;
9248;SDS011;4660;41.768;26.198;2022-08-19T06:44:10;10.75;;;7.75;;
9248;SDS011;4660;41.768;26.198;2022-08-19T06:46:37;10.13;;;7.30;;
9248;SDS011;4660;41.768;26.198;2022-08-19T06:49:04;10.05;;;7.38;;
9248;SDS011;4660;41.768;26.198;2022-08-19T06:51:30;8.88;;;7.90;;
9248;SDS011;4660;41.768;26.198;2022-08-19T06:53:57;10.23;;;7.03;;
9248;SDS011;4660;41.768;26.198;2022-08-19T06:56:24;12.70;;;7.40;;
9248;SDS011;4660;41.768;26.198;2022-08-19T07:01:26;8.45;;;7.07;;
9248;SDS011;4660;41.768;26.198;2022-08-19T07:03:52;8.65;;;7.50;;
9248;SDS011;4660;41.768;26.198;2022-08-19T07:06:18;10.77;;;7.30;;
9248;SDS011;4660;41.768;26.198;2022-08-19T07:08:45;9.80;;;7.40;;
9248;SDS011;4660;41.768;26.198;2022-08-19T07:11:13;8.07;;;7.32;;
9248;SDS011;4660;41.768;26.198;2022-08-19T07:13:42;11.50;;;7.30;;
9248;SDS011;4660;41.768;26.198;2022-08-19T07:16:09;9.20;;;7.18;;
9248;SDS011;4660;41.768;26.198;2022-08-19T07:18:38;7.95;;;7.20;;
9248;SDS011;4660;41.768;26.198;2022-08-19T07:23:43;8.60;;;7.70;;
9248;SDS011;4660;41.768;26.198;2022-08-19T07:26:13;9.07;;;7.18;;
9248;SDS011;4660;41.768;26.198;2022-08-19T07:29:09;6.85;;;6.25;;
9248;SDS011;4660;41.768;26.198;2022-08-19T07:31:35;11.57;;;7.00;;
9248;SDS011;4660;41.768;26.198;2022-08-19T07:34:05;11.85;;;6.60;;
9248;SDS011;4660;41.768;26.198;2022-08-19T07:36:33;7.20;;;6.60;;
9248;SDS011;4660;41.768;26.198;2022-08-19T07:39:02;7.53;;;6.38;;
9248;SDS011;4660;41.768;26.198;2022-08-19T07:41:31;7.07;;;6.03;;
9248;SDS011;4660;41.768;26.198;2022-08-19T07:44:00;7.20;;;6.15;;
9248;SDS011;4660;41.768;26.198;2022-08-19T07:46:32;8.63;;;6.85;;
9248;SDS011;4660;41.768;26.198;2022-08-19T07:48:59;7.78;;;6.70;;
9248;SDS011;4660;41.768;26.198;2022-08-19T07:51:26;9.43;;;6.93;;
9248;SDS011;4660;41.768;26.198;2022-08-19T07:53:52;7.20;;;6.50;;
9248;SDS011;4660;41.768;26.198;2022-08-19T07:56:19;7.28;;;5.90;;
9248;SDS011;4660;41.768;26.198;2022-08-19T07:58:47;8.25;;;6.47;;
9248;SDS011;4660;41.768;26.198;2022-08-19T08:01:15;7.55;;;6.60;;
9248;SDS011;4660;41.768;26.198;2022-08-19T08:03:45;7.72;;;6.53;;
9248;SDS011;4660;41.768;26.198;2022-08-19T08:06:31;9.25;;;6.60;;
9248;SDS011;4660;41.768;26.198;2022-08-19T08:09:17;7.65;;;5.90;;
9248;SDS011;4660;41.768;26.198;2022-08-19T08:11:49;8.25;;;6.60;;
9248;SDS011;4660;41.768;26.198;2022-08-19T08:14:48;10.85;;;6.32;;
9248;SDS011;4660;41.768;26.198;2022-08-19T08:17:09;9.45;;;6.25;;
9248;SDS011;4660;41.768;26.198;2022-08-19T08:19:35;9.88;;;6.78;;
9248;SDS011;4660;41.768;26.198;2022-08-19T08:22:01;7.22;;;6.60;;
9248;SDS011;4660;41.768;26.198;2022-08-19T08:24:29;7.13;;;5.97;;
9248;SDS011;4660;41.768;26.198;2022-08-19T08:26:59;9.82;;;6.40;;
9248;SDS011;4660;41.768;26.198;2022-08-19T08:29:29;6.43;;;5.80;;
9248;SDS011;4660;41.768;26.198;2022-08-19T08:32:14;8.75;;;6.20;;
9248;SDS011;4660;41.768;26.198;2022-08-19T08:34:40;7.45;;;6.18;;
9248;SDS011;4660;41.768;26.198;2022-08-19T08:37:07;6.25;;;5.65;;
9248;SDS011;4660;41.768;26.198;2022-08-19T08:39:32;6.57;;;5.95;;
9248;SDS011;4660;41.768;26.198;2022-08-19T08:42:01;7.03;;;6.15;;
9248;SDS011;4660;41.768;26.198;2022-08-19T08:44:56;6.85;;;5.68;;
9248;SDS011;4660;41.768;26.198;2022-08-19T08:47:23;6.68;;;6.00;;
9248;SDS011;4660;41.768;26.198;2022-08-19T08:49:56;7.20;;;6.50;;
9248;SDS011;4660;41.768;26.198;2022-08-19T08:52:47;7.30;;;6.03;;
9248;SDS011;4660;41.768;26.198;2022-08-19T08:55:18;6.30;;;5.70;;
9248;SDS011;4660;41.768;26.198;2022-08-19T09:00:17;5.95;;;5.30;;
9248;SDS011;4660;41.768;26.198;2022-08-19T09:02:46;6.68;;;6.07;;
9248;SDS011;4660;41.768;26.198;2022-08-19T09:05:12;6.30;;;4.68;;
9248;SDS011;4660;41.768;26.198;2022-08-19T09:07:45;7.70;;;5.70;;
9248;SDS011;4660;41.768;26.198;2022-08-19T09:10:24;6.82;;;5.65;;
9248;SDS011;4660;41.768;26.198;2022-08-19T09:15:48;5.75;;;5.05;;
9248;SDS011;4660;41.768;26.198;2022-08-19T09:18:22;6.00;;;5.50;;
9248;SDS011;4660;41.768;26.198;2022-08-19T09:20:47;6.80;;;5.63;;
9248;SDS011;4660;41.768;26.198;2022-08-19T09:23:13;6.15;;;5.55;;
9248;SDS011;4660;41.768;26.198;2022-08-19T09:25:39;5.88;;;5.35;;
9248;SDS011;4660;41.768;26.198;2022-08-19T09:28:06;7.72;;;5.85;;
9248;SDS011;4660;41.768;26.198;2022-08-19T09:30:33;5.85;;;5.38;;
9248;SDS011;4660;41.768;26.198;2022-08-19T09:33:04;5.82;;;5.32;;
9248;SDS011;4660;41.768;26.198;2022-08-19T09:35:31;8.13;;;5.95;;
9248;SDS011;4660;41.768;26.198;2022-08-19T09:37:58;6.47;;;5.47;;
9248;SDS011;4660;41.768;26.198;2022-08-19T09:40:28;5.82;;;5.22;;
9248;SDS011;4660;41.768;26.198;2022-08-19T09:42:55;5.35;;;4.78;;
9248;SDS011;4660;41.768;26.198;2022-08-19T09:45:23;5.75;;;4.65;;
9248;SDS011;4660;41.768;26.198;2022-08-19T09:47:50;4.80;;;4.35;;
9248;SDS011;4660;41.768;26.198;2022-08-19T09:50:17;6.05;;;4.20;;
9248;SDS011;4660;41.768;26.198;2022-08-19T09:52:44;4.95;;;4.55;;
9248;SDS011;4660;41.768;26.198;2022-08-19T09:55:10;5.55;;;5.05;;
9248;SDS011;4660;41.768;26.198;2022-08-19T09:57:36;6.78;;;4.80;;
9248;SDS011;4660;41.768;26.198;2022-08-19T10:00:03;4.65;;;4.25;;
9248;SDS011;4660;41.768;26.198;2022-08-19T10:02:30;5.03;;;4.53;;
9248;SDS011;4660;41.768;26.198;2022-08-19T10:04:56;6.53;;;5.88;;
9248;SDS011;4660;41.768;26.198;2022-08-19T10:07:40;4.95;;;4.40;;
9248;SDS011;4660;41.768;26.198;2022-08-19T10:10:06;4.32;;;3.92;;
9248;SDS011;4660;41.768;26.198;2022-08-19T10:12:33;4.28;;;3.88;;
9248;SDS011;4660;41.768;26.198;2022-08-19T10:15:01;4.47;;;3.90;;
9248;SDS011;4660;41.768;26.198;2022-08-19T10:20:03;5.68;;;3.90;;
9248;SDS011;4660;41.768;26.198;2022-08-19T10:22:30;6.22;;;4.20;;
9248;SDS011;4660;41.768;26.198;2022-08-19T10:24:56;4.40;;;4.10;;
9248;SDS011;4660;41.768;26.198;2022-08-19T10:27:21;4.45;;;4.07;;
9248;SDS011;4660;41.768;26.198;2022-08-19T10:29:47;4.13;;;3.83;;
9248;SDS011;4660;41.768;26.198;2022-08-19T10:32:13;5.45;;;3.83;;
9248;SDS011;4660;41.768;26.198;2022-08-19T10:34:39;4.25;;;3.95;;
9248;SDS011;4660;41.768;26.198;2022-08-19T10:37:05;4.20;;;3.80;;
9248;SDS011;4660;41.768;26.198;2022-08-19T10:39:31;4.25;;;3.92;;
9248;SDS011;4660;41.768;26.198;2022-08-19T10:42:03;4.07;;;3.67;;
9248;SDS011;4660;41.768;26.198;2022-08-19T10:44:31;4.03;;;3.70;;
9248;SDS011;4660;41.768;26.198;2022-08-19T10:46:58;7.30;;;4.00;;
9248;SDS011;4660;41.768;26.198;2022-08-19T10:49:24;3.67;;;3.38;;
9248;SDS011;4660;41.768;26.198;2022-08-19T10:51:49;5.78;;;4.13;;
9248;SDS011;4660;41.768;26.198;2022-08-19T10:54:34;4.88;;;3.95;;
9248;SDS011;4660;41.768;26.198;2022-08-19T10:57:19;4.10;;;3.63;;
9248;SDS011;4660;41.768;26.198;2022-08-19T10:59:49;4.18;;;3.88;;
9248;SDS011;4660;41.768;26.198;2022-08-19T11:02:15;3.95;;;3.22;;
9248;SDS011;4660;41.768;26.198;2022-08-19T11:04:40;5.30;;;3.80;;
9248;SDS011;4660;41.768;26.198;2022-08-19T11:07:06;4.38;;;3.92;;
9248;SDS011;4660;41.768;26.198;2022-08-19T11:09:36;4.20;;;3.90;;
9248;SDS011;4660;41.768;26.198;2022-08-19T11:12:04;4.35;;;4.03;;
9248;SDS011;4660;41.768;26.198;2022-08-19T11:14:30;6.65;;;3.70;;
9248;SDS011;4660;41.768;26.198;2022-08-19T11:16:58;4.63;;;3.33;;
9248;SDS011;4660;41.768;26.198;2022-08-19T11:19:23;4.70;;;3.72;;
9248;SDS011;4660;41.768;26.198;2022-08-19T11:21:50;4.43;;;3.95;;
9248;SDS011;4660;41.768;26.198;2022-08-19T11:24:20;4.40;;;4.00;;
9248;SDS011;4660;41.768;26.198;2022-08-19T11:26:47;5.03;;;4.03;;
9248;SDS011;4660;41.768;26.198;2022-08-19T11:29:14;4.22;;;3.50;;
9248;SDS011;4660;41.768;26.198;2022-08-19T11:31:42;4.15;;;3.75;;
9248;SDS011;4660;41.768;26.198;2022-08-19T11:34:12;4.75;;;3.70;;
9248;SDS011;4660;41.768;26.198;2022-08-19T11:36:42;4.95;;;3.72;;
9248;SDS011;4660;41.768;26.198;2022-08-19T11:39:10;4.28;;;3.58;;
9248;SDS011;4660;41.768;26.198;2022-08-19T11:41:46;4.25;;;3.85;;
9248;SDS011;4660;41.768;26.198;2022-08-19T11:44:13;3.97;;;3.45;;
9248;SDS011;4660;41.768;26.198;2022-08-19T11:46:40;3.85;;;3.55;;
9248;SDS011;4660;41.768;26.198;2022-08-19T11:49:08;8.63;;;3.95;;
9248;SDS011;4660;41.768;26.198;2022-08-19T11:51:34;4.70;;;4.30;;
9248;SDS011;4660;41.768;26.198;2022-08-19T11:54:00;6.50;;;3.85;;
9248;SDS011;4660;41.768;26.198;2022-08-19T11:56:27;5.13;;;4.05;;
9248;SDS011;4660;41.768;26.198;2022-08-19T11:58:53;4.57;;;3.95;;
9248;SDS011;4660;41.768;26.198;2022-08-19T12:01:22;4.22;;;3.83;;
9248;SDS011;4660;41.768;26.198;2022-08-19T12:03:49;5.28;;;4.45;;
9248;SDS011;4660;41.768;26.198;2022-08-19T12:08:53;5.72;;;4.60;;
9248;SDS011;4660;41.768;26.198;2022-08-19T12:11:22;5.80;;;4.00;;
9248;SDS011;4660;41.768;26.198;2022-08-19T12:13:48;4.85;;;3.97;;
9248;SDS011;4660;41.768;26.198;2022-08-19T12:16:18;4.28;;;3.95;;
9248;SDS011;4660;41.768;26.198;2022-08-19T12:18:48;5.18;;;4.28;;
9248;SDS011;4660;41.768;26.198;2022-08-19T12:21:17;4.95;;;4.53;;
9248;SDS011;4660;41.768;26.198;2022-08-19T12:23:49;5.68;;;4.00;;
9248;SDS011;4660;41.768;26.198;2022-08-19T12:26:16;5.43;;;4.90;;
9248;SDS011;4660;41.768;26.198;2022-08-19T12:28:42;4.55;;;4.20;;
9248;SDS011;4660;41.768;26.198;2022-08-19T12:33:43;4.35;;;3.95;;
9248;SDS011;4660;41.768;26.198;2022-08-19T12:36:10;5.03;;;4.30;;
9248;SDS011;4660;41.768;26.198;2022-08-19T12:38:37;4.70;;;4.30;;
9248;SDS011;4660;41.768;26.198;2022-08-19T12:41:04;5.85;;;3.92;;
9248;SDS011;4660;41.768;26.198;2022-08-19T12:43:34;4.63;;;4.22;;
9248;SDS011;4660;41.768;26.198;2022-08-19T12:46:03;4.57;;;4.18;;
9248;SDS011;4660;41.768;26.198;2022-08-19T12:48:30;5.82;;;4.10;;
9248;SDS011;4660;41.768;26.198;2022-08-19T12:50:57;4.95;;;4.43;;
9248;SDS011;4660;41.768;26.198;2022-08-19T12:53:22;4.60;;;4.30;;
9248;SDS011;4660;41.768;26.198;2022-08-19T12:55:56;4.97;;;3.95;;
9248;SDS011;4660;41.768;26.198;2022-08-19T12:58:23;5.13;;;4.50;;
9248;SDS011;4660;41.768;26.198;2022-08-19T13:00:48;5.07;;;4.68;;
9248;SDS011;4660;41.768;26.198;2022-08-19T13:03:14;4.35;;;4.03;;
9248;SDS011;4660;41.768;26.198;2022-08-19T13:05:42;4.70;;;4.30;;
9248;SDS011;4660;41.768;26.198;2022-08-19T13:08:13;4.55;;;4.25;;
9248;SDS011;4660;41.768;26.198;2022-08-19T13:10:39;5.07;;;3.90;;
9248;SDS011;4660;41.768;26.198;2022-08-19T13:13:06;4.50;;;4.10;;
9248;SDS011;4660;41.768;26.198;2022-08-19T13:15:33;4.93;;;3.88;;
9248;SDS011;4660;41.768;26.198;2022-08-19T13:18:00;6.40;;;3.90;;
9248;SDS011;4660;41.768;26.198;2022-08-19T13:20:26;6.80;;;4.05;;
9248;SDS011;4660;41.768;26.198;2022-08-19T13:22:53;4.97;;;4.47;;
9248;SDS011;4660;41.768;26.198;2022-08-19T13:25:19;4.18;;;3.75;;
9248;SDS011;4660;41.768;26.198;2022-08-19T13:27:46;4.28;;;3.90;;
9248;SDS011;4660;41.768;26.198;2022-08-19T13:30:14;4.60;;;3.90;;
9248;SDS011;4660;41.768;26.198;2022-08-19T13:33:00;8.45;;;4.38;;
9248;SDS011;4660;41.768;26.198;2022-08-19T13:35:40;6.72;;;4.15;;
9248;SDS011;4660;41.768;26.198;2022-08-19T13:38:10;4.78;;;4.32;;
9248;SDS011;4660;41.768;26.198;2022-08-19T13:40:37;6.13;;;3.95;;
9248;SDS011;4660;41.768;26.198;2022-08-19T13:43:04;4.30;;;3.90;;
9248;SDS011;4660;41.768;26.198;2022-08-19T13:45:31;6.15;;;4.78;;
9248;SDS011;4660;41.768;26.198;2022-08-19T13:47:59;4.57;;;3.83;;
9248;SDS011;4660;41.768;26.198;2022-08-19T13:50:31;6.53;;;4.15;;
9248;SDS011;4660;41.768;26.198;2022-08-19T13:52:58;3.78;;;3.47;;
9248;SDS011;4660;41.768;26.198;2022-08-19T13:55:25;8.75;;;3.60;;
9248;SDS011;4660;41.768;26.198;2022-08-19T13:57:52;4.22;;;3.85;;
9248;SDS011;4660;41.768;26.198;2022-08-19T14:00:19;4.60;;;4.00;;
9248;SDS011;4660;41.768;26.198;2022-08-19T14:02:46;5.32;;;3.80;;
9248;SDS011;4660;41.768;26.198;2022-08-19T14:05:13;5.38;;;3.78;;
9248;SDS011;4660;41.768;26.198;2022-08-19T14:07:41;5.82;;;4.07;;
9248;SDS011;4660;41.768;26.198;2022-08-19T14:10:07;7.65;;;4.05;;
9248;SDS011;4660;41.768;26.198;2022-08-19T14:12:35;5.38;;;3.55;;
9248;SDS011;4660;41.768;26.198;2022-08-19T14:15:02;5.63;;;3.55;;
9248;SDS011;4660;41.768;26.198;2022-08-19T14:17:29;4.47;;;3.67;;
9248;SDS011;4660;41.768;26.198;2022-08-19T14:19:58;7.63;;;3.75;;
9248;SDS011;4660;41.768;26.198;2022-08-19T14:22:26;4.55;;;3.75;;
9248;SDS011;4660;41.768;26.198;2022-08-19T14:24:51;7.18;;;4.28;;
9248;SDS011;4660;41.768;26.198;2022-08-19T14:27:17;5.40;;;3.78;;
9248;SDS011;4660;41.768;26.198;2022-08-19T14:29:42;4.25;;;3.78;;
9248;SDS011;4660;41.768;26.198;2022-08-19T14:32:09;4.60;;;3.92;;
9248;SDS011;4660;41.768;26.198;2022-08-19T14:34:35;5.20;;;4.00;;
9248;SDS011;4660;41.768;26.198;2022-08-19T14:37:02;4.07;;;3.65;;
9248;SDS011;4660;41.768;26.198;2022-08-19T14:39:28;6.40;;;4.07;;
9248;SDS011;4660;41.768;26.198;2022-08-19T14:41:53;6.72;;;3.80;;
9248;SDS011;4660;41.768;26.198;2022-08-19T14:44:19;5.65;;;3.83;;
9248;SDS011;4660;41.768;26.198;2022-08-19T14:46:44;3.80;;;3.50;;
9248;SDS011;4660;41.768;26.198;2022-08-19T14:49:10;6.10;;;4.13;;
9248;SDS011;4660;41.768;26.198;2022-08-19T14:51:36;7.15;;;4.05;;
9248;SDS011;4660;41.768;26.198;2022-08-19T14:54:01;4.15;;;3.75;;
9248;SDS011;4660;41.768;26.198;2022-08-19T14:56:28;4.10;;;3.80;;
9248;SDS011;4660;41.768;26.198;2022-08-19T14:58:54;7.57;;;4.45;;
9248;SDS011;4660;41.768;26.198;2022-08-19T15:01:22;4.30;;;3.90;;
9248;SDS011;4660;41.768;26.198;2022-08-19T15:03:48;4.05;;;3.65;;
9248;SDS011;4660;41.768;26.198;2022-08-19T15:06:14;7.55;;;4.53;;
9248;SDS011;4660;41.768;26.198;2022-08-19T15:08:41;5.75;;;4.40;;
9248;SDS011;4660;41.768;26.198;2022-08-19T15:11:14;7.07;;;4.50;;
9248;SDS011;4660;41.768;26.198;2022-08-19T15:13:54;4.82;;;3.92;;
9248;SDS011;4660;41.768;26.198;2022-08-19T15:16:20;7.32;;;4.15;;
9248;SDS011;4660;41.768;26.198;2022-08-19T15:23:59;5.70;;;4.10;;
9248;SDS011;4660;41.768;26.198;2022-08-19T15:26:35;6.65;;;4.07;;
9248;SDS011;4660;41.768;26.198;2022-08-19T15:29:02;10.27;;;4.35;;
9248;SDS011;4660;41.768;26.198;2022-08-19T15:31:29;4.30;;;3.90;;
9248;SDS011;4660;41.768;26.198;2022-08-19T15:33:59;5.00;;;4.50;;
9248;SDS011;4660;41.768;26.198;2022-08-19T15:36:25;8.88;;;4.70;;